sensor_id;sensor_type;location;lat;lon;timestamp;temperature;humidity
18337;DHT22;9294;51.106;7.028;2024-03-23T00:53:05;20.60;92.00
18337;DHT22;9294;51.106;7.028;2024-03-23T00:55:32;20.60;92.00
18337;DHT22;9294;51.106;7.028;2024-03-23T00:57:58;20.60;92.00
18337;DHT22;9294;51.106;7.028;2024-03-23T01:00:24;20.60;92.00
18337;DHT22;9294;51.106;7.028;2024-03-23T01:02:50;20.60;92.00
18337;DHT22;9294;51.106;7.028;2024-03-23T01:05:17;20.60;92.00
18337;DHT22;9294;51.106;7.028;2024-03-23T01:07:42;20.60;92.00
18337;DHT22;9294;51.106;7.028;2024-03-23T01:10:11;20.60;91.90
18337;DHT22;9294;51.106;7.028;2024-03-23T01:12:36;20.60;91.90
18337;DHT22;9294;51.106;7.028;2024-03-23T01:15:03;20.60;91.90
18337;DHT22;9294;51.106;7.028;2024-03-23T01:17:29;20.60;91.90
18337;DHT22;9294;51.106;7.028;2024-03-23T01:19:56;20.60;91.80
18337;DHT22;9294;51.106;7.028;2024-03-23T01:22:21;20.60;91.90
18337;DHT22;9294;51.106;7.028;2024-03-23T01:24:48;20.60;91.80
18337;DHT22;9294;51.106;7.028;2024-03-23T01:27:15;20.60;91.80
18337;DHT22;9294;51.106;7.028;2024-03-23T01:29:42;20.60;91.80
18337;DHT22;9294;51.106;7.028;2024-03-23T01:32:07;20.60;91.80
18337;DHT22;9294;51.106;7.028;2024-03-23T01:34:34;20.60;91.80
18337;DHT22;9294;51.106;7.028;2024-03-23T01:37:00;20.60;91.80
18337;DHT22;9294;51.106;7.028;2024-03-23T01:39:27;20.60;91.70
18337;DHT22;9294;51.106;7.028;2024-03-23T01:41:52;20.60;91.70
18337;DHT22;9294;51.106;7.028;2024-03-23T01:44:21;20.60;91.60
18337;DHT22;9294;51.106;7.028;2024-03-23T01:46:46;20.60;91.60
18337;DHT22;9294;51.106;7.028;2024-03-23T01:49:14;20.60;91.60
18337;DHT22;9294;51.106;7.028;2024-03-23T01:51:39;20.60;91.60
18337;DHT22;9294;51.106;7.028;2024-03-23T01:54:08;20.60;91.60
18337;DHT22;9294;51.106;7.028;2024-03-23T01:56:35;20.60;91.50
18337;DHT22;9294;51.106;7.028;2024-03-23T01:59:01;20.60;91.40
18337;DHT22;9294;51.106;7.028;2024-03-23T02:01:29;20.60;91.50
18337;DHT22;9294;51.106;7.028;2024-03-23T02:03:56;20.60;91.40
18337;DHT22;9294;51.106;7.028;2024-03-23T02:06:22;20.60;91.40
18337;DHT22;9294;51.106;7.028;2024-03-23T02:08:49;20.60;91.40
18337;DHT22;9294;51.106;7.028;2024-03-23T02:11:14;20.60;91.40
18337;DHT22;9294;51.106;7.028;2024-03-23T02:13:41;20.60;91.40
18337;DHT22;9294;51.106;7.028;2024-03-23T02:16:07;20.60;91.40
18337;DHT22;9294;51.106;7.028;2024-03-23T02:18:35;20.60;91.40
18337;DHT22;9294;51.106;7.028;2024-03-23T02:21:01;20.50;91.30
18337;DHT22;9294;51.106;7.028;2024-03-23T02:23:29;20.50;91.30
18337;DHT22;9294;51.106;7.028;2024-03-23T02:25:55;20.50;91.30
18337;DHT22;9294;51.106;7.028;2024-03-23T02:28:22;20.50;91.30
18337;DHT22;9294;51.106;7.028;2024-03-23T02:30:48;20.50;91.30
18337;DHT22;9294;51.106;7.028;2024-03-23T02:33:15;20.50;91.30
18337;DHT22;9294;51.106;7.028;2024-03-23T02:35:40;20.50;91.30
18337;DHT22;9294;51.106;7.028;2024-03-23T02:38:07;20.50;91.30
18337;DHT22;9294;51.106;7.028;2024-03-23T02:40:34;20.50;91.30
18337;DHT22;9294;51.106;7.028;2024-03-23T02:43:02;20.50;91.30
18337;DHT22;9294;51.106;7.028;2024-03-23T02:45:28;20.50;91.30
18337;DHT22;9294;51.106;7.028;2024-03-23T02:47:55;20.50;91.30
18337;DHT22;9294;51.106;7.028;2024-03-23T02:50:20;20.50;91.30
18337;DHT22;9294;51.106;7.028;2024-03-23T02:52:48;20.50;91.30
18337;DHT22;9294;51.106;7.028;2024-03-23T02:55:14;20.50;91.30
18337;DHT22;9294;51.106;7.028;2024-03-23T02:57:42;20.50;91.30
18337;DHT22;9294;51.106;7.028;2024-03-23T03:00:08;20.40;91.20
18337;DHT22;9294;51.106;7.028;2024-03-23T03:02:36;20.40;91.20
18337;DHT22;9294;51.106;7.028;2024-03-23T03:05:03;20.40;91.20
18337;DHT22;9294;51.106;7.028;2024-03-23T03:07:30;20.40;91.20
18337;DHT22;9294;51.106;7.028;2024-03-23T03:09:56;20.40;91.20
18337;DHT22;9294;51.106;7.028;2024-03-23T03:12:22;20.50;91.20
18337;DHT22;9294;51.106;7.028;2024-03-23T03:14:50;20.40;91.20
18337;DHT22;9294;51.106;7.028;2024-03-23T03:17:16;20.40;91.20
18337;DHT22;9294;51.106;7.028;2024-03-23T03:19:42;20.40;91.20
18337;DHT22;9294;51.106;7.028;2024-03-23T03:22:08;20.40;91.20
18337;DHT22;9294;51.106;7.028;2024-03-23T03:24:34;20.40;91.10
18337;DHT22;9294;51.106;7.028;2024-03-23T03:27:01;20.40;91.20
18337;DHT22;9294;51.106;7.028;2024-03-23T03:29:28;20.40;91.20
18337;DHT22;9294;51.106;7.028;2024-03-23T03:32:02;20.40;91.20
18337;DHT22;9294;51.106;7.028;2024-03-23T03:34:28;20.40;91.20
18337;DHT22;9294;51.106;7.028;2024-03-23T03:36:55;20.40;91.20
18337;DHT22;9294;51.106;7.028;2024-03-23T03:39:21;20.40;91.20
18337;DHT22;9294;51.106;7.028;2024-03-23T03:41:49;20.40;91.20
18337;DHT22;9294;51.106;7.028;2024-03-23T03:44:14;20.40;91.20
18337;DHT22;9294;51.106;7.028;2024-03-23T03:46:41;20.30;91.20
18337;DHT22;9294;51.106;7.028;2024-03-23T03:49:08;20.40;91.20
18337;DHT22;9294;51.106;7.028;2024-03-23T03:51:35;20.40;91.20
18337;DHT22;9294;51.106;7.028;2024-03-23T03:54:01;20.30;91.20
18337;DHT22;9294;51.106;7.028;2024-03-23T03:56:27;20.30;91.20
18337;DHT22;9294;51.106;7.028;2024-03-23T03:58:53;20.30;91.20
18337;DHT22;9294;51.106;7.028;2024-03-23T04:01:20;20.30;91.20
18337;DHT22;9294;51.106;7.028;2024-03-23T04:03:45;20.30;91.30
18337;DHT22;9294;51.106;7.028;2024-03-23T04:06:18;20.30;91.30
18337;DHT22;9294;51.106;7.028;2024-03-23T04:08:44;20.30;91.30
18337;DHT22;9294;51.106;7.028;2024-03-23T04:11:11;20.30;91.40
18337;DHT22;9294;51.106;7.028;2024-03-23T04:13:36;20.30;91.40
18337;DHT22;9294;51.106;7.028;2024-03-23T04:16:04;20.30;91.40
18337;DHT22;9294;51.106;7.028;2024-03-23T04:18:29;20.30;91.40
18337;DHT22;9294;51.106;7.028;2024-03-23T04:20:56;20.30;91.40
18337;DHT22;9294;51.106;7.028;2024-03-23T04:23:23;20.30;91.50
18337;DHT22;9294;51.106;7.028;2024-03-23T04:25:50;20.30;91.50
18337;DHT22;9294;51.106;7.028;2024-03-23T04:28:17;20.20;91.40
18337;DHT22;9294;51.106;7.028;2024-03-23T04:30:44;20.20;91.40
18337;DHT22;9294;51.106;7.028;2024-03-23T04:33:09;20.20;91.50
18337;DHT22;9294;51.106;7.028;2024-03-23T04:35:36;20.20;91.50
18337;DHT22;9294;51.106;7.028;2024-03-23T04:38:02;20.20;91.40
18337;DHT22;9294;51.106;7.028;2024-03-23T04:40:30;20.20;91.40
18337;DHT22;9294;51.106;7.028;2024-03-23T04:42:56;20.20;91.40
18337;DHT22;9294;51.106;7.028;2024-03-23T04:45:23;20.20;91.40
18337;DHT22;9294;51.106;7.028;2024-03-23T04:47:50;20.20;91.40
18337;DHT22;9294;51.106;7.028;2024-03-23T04:50:16;20.20;91.40
18337;DHT22;9294;51.106;7.028;2024-03-23T04:52:44;20.20;91.40
18337;DHT22;9294;51.106;7.028;2024-03-23T04:55:09;20.20;91.40
18337;DHT22;9294;51.106;7.028;2024-03-23T04:57:38;20.20;91.40
18337;DHT22;9294;51.106;7.028;2024-03-23T05:00:06;20.20;91.40
18337;DHT22;9294;51.106;7.028;2024-03-23T05:02:42;20.20;91.40
18337;DHT22;9294;51.106;7.028;2024-03-23T05:05:09;20.20;91.40
18337;DHT22;9294;51.106;7.028;2024-03-23T05:07:35;20.20;91.40
18337;DHT22;9294;51.106;7.028;2024-03-23T05:10:01;20.20;91.40
18337;DHT22;9294;51.106;7.028;2024-03-23T05:12:27;20.20;91.40
18337;DHT22;9294;51.106;7.028;2024-03-23T05:14:55;20.10;91.40
18337;DHT22;9294;51.106;7.028;2024-03-23T05:17:21;20.10;91.40
18337;DHT22;9294;51.106;7.028;2024-03-23T05:19:47;20.10;91.40
18337;DHT22;9294;51.106;7.028;2024-03-23T05:22:13;20.10;91.40
18337;DHT22;9294;51.106;7.028;2024-03-23T05:24:40;20.10;91.40
18337;DHT22;9294;51.106;7.028;2024-03-23T05:27:05;20.10;91.40
18337;DHT22;9294;51.106;7.028;2024-03-23T05:29:32;20.10;91.40
18337;DHT22;9294;51.106;7.028;2024-03-23T05:31:59;20.10;91.50
18337;DHT22;9294;51.106;7.028;2024-03-23T05:34:26;20.10;91.50
18337;DHT22;9294;51.106;7.028;2024-03-23T05:36:51;20.10;91.50
18337;DHT22;9294;51.106;7.028;2024-03-23T05:39:18;20.00;91.50
18337;DHT22;9294;51.106;7.028;2024-03-23T05:41:47;20.00;91.50
18337;DHT22;9294;51.106;7.028;2024-03-23T05:44:14;20.00;91.50
18337;DHT22;9294;51.106;7.028;2024-03-23T05:46:40;20.00;91.50
18337;DHT22;9294;51.106;7.028;2024-03-23T05:49:08;20.00;91.50
18337;DHT22;9294;51.106;7.028;2024-03-23T05:51:34;20.00;91.50
18337;DHT22;9294;51.106;7.028;2024-03-23T05:54:01;20.00;91.50
18337;DHT22;9294;51.106;7.028;2024-03-23T05:56:27;20.00;91.60
18337;DHT22;9294;51.106;7.028;2024-03-23T05:58:53;20.00;91.60
18337;DHT22;9294;51.106;7.028;2024-03-23T06:01:19;20.00;91.60
18337;DHT22;9294;51.106;7.028;2024-03-23T06:03:45;20.00;91.60
18337;DHT22;9294;51.106;7.028;2024-03-23T06:06:13;20.00;91.70
18337;DHT22;9294;51.106;7.028;2024-03-23T06:08:39;20.00;91.70
18337;DHT22;9294;51.106;7.028;2024-03-23T06:11:05;20.00;91.70
18337;DHT22;9294;51.106;7.028;2024-03-23T06:13:32;20.00;91.70
18337;DHT22;9294;51.106;7.028;2024-03-23T06:15:59;20.00;91.80
18337;DHT22;9294;51.106;7.028;2024-03-23T06:18:25;20.00;91.90
18337;DHT22;9294;51.106;7.028;2024-03-23T06:20:51;20.00;92.00
18337;DHT22;9294;51.106;7.028;2024-03-23T06:23:19;20.00;92.00
18337;DHT22;9294;51.106;7.028;2024-03-23T06:25:45;20.00;91.90
18337;DHT22;9294;51.106;7.028;2024-03-23T06:28:12;20.00;91.90
18337;DHT22;9294;51.106;7.028;2024-03-23T06:30:38;20.00;92.00
18337;DHT22;9294;51.106;7.028;2024-03-23T06:33:05;20.00;92.00
18337;DHT22;9294;51.106;7.028;2024-03-23T06:35:31;20.10;91.90
18337;DHT22;9294;51.106;7.028;2024-03-23T06:37:57;20.10;91.90
18337;DHT22;9294;51.106;7.028;2024-03-23T06:40:24;20.20;91.90
18337;DHT22;9294;51.106;7.028;2024-03-23T06:42:51;20.20;91.80
18337;DHT22;9294;51.106;7.028;2024-03-23T06:45:17;20.20;91.80
18337;DHT22;9294;51.106;7.028;2024-03-23T06:47:48;20.30;91.70
18337;DHT22;9294;51.106;7.028;2024-03-23T06:50:14;20.30;91.60
18337;DHT22;9294;51.106;7.028;2024-03-23T06:52:41;20.40;91.50
18337;DHT22;9294;51.106;7.028;2024-03-23T06:55:07;20.40;91.40
18337;DHT22;9294;51.106;7.028;2024-03-23T06:57:35;20.30;91.40
18337;DHT22;9294;51.106;7.028;2024-03-23T07:00:01;20.50;91.30
18337;DHT22;9294;51.106;7.028;2024-03-23T07:02:28;20.50;91.30
18337;DHT22;9294;51.106;7.028;2024-03-23T07:04:53;20.50;91.30
18337;DHT22;9294;51.106;7.028;2024-03-23T07:07:20;20.50;91.30
18337;DHT22;9294;51.106;7.028;2024-03-23T07:09:46;20.50;91.20
18337;DHT22;9294;51.106;7.028;2024-03-23T07:12:13;20.50;91.30
18337;DHT22;9294;51.106;7.028;2024-03-23T07:14:40;20.40;91.20
18337;DHT22;9294;51.106;7.028;2024-03-23T07:17:06;20.40;91.30
18337;DHT22;9294;51.106;7.028;2024-03-23T07:19:32;20.40;91.30
18337;DHT22;9294;51.106;7.028;2024-03-23T07:21:59;20.40;91.40
18337;DHT22;9294;51.106;7.028;2024-03-23T07:24:24;20.40;91.40
18337;DHT22;9294;51.106;7.028;2024-03-23T07:26:52;20.40;91.40
18337;DHT22;9294;51.106;7.028;2024-03-23T07:29:20;20.40;91.50
18337;DHT22;9294;51.106;7.028;2024-03-23T07:31:47;20.40;91.50
18337;DHT22;9294;51.106;7.028;2024-03-23T07:34:13;20.30;91.40
18337;DHT22;9294;51.106;7.028;2024-03-23T07:36:40;20.30;91.40
18337;DHT22;9294;51.106;7.028;2024-03-23T07:39:05;20.30;91.40
18337;DHT22;9294;51.106;7.028;2024-03-23T07:41:33;20.30;91.50
18337;DHT22;9294;51.106;7.028;2024-03-23T07:43:59;20.30;91.50
18337;DHT22;9294;51.106;7.028;2024-03-23T07:46:25;20.30;91.40
18337;DHT22;9294;51.106;7.028;2024-03-23T07:48:52;20.30;91.50
18337;DHT22;9294;51.106;7.028;2024-03-23T07:51:21;20.30;91.50
18337;DHT22;9294;51.106;7.028;2024-03-23T07:53:48;20.30;91.50
18337;DHT22;9294;51.106;7.028;2024-03-23T07:56:14;20.30;91.50
18337;DHT22;9294;51.106;7.028;2024-03-23T07:58:41;20.30;91.50
18337;DHT22;9294;51.106;7.028;2024-03-23T08:01:08;20.40;91.50
18337;DHT22;9294;51.106;7.028;2024-03-23T08:03:36;20.30;91.50
18337;DHT22;9294;51.106;7.028;2024-03-23T08:06:10;20.30;91.50
18337;DHT22;9294;51.106;7.028;2024-03-23T08:08:38;20.30;91.40
18337;DHT22;9294;51.106;7.028;2024-03-23T08:11:04;20.30;91.50
18337;DHT22;9294;51.106;7.028;2024-03-23T08:13:31;20.30;91.50
18337;DHT22;9294;51.106;7.028;2024-03-23T08:15:57;20.30;91.60
18337;DHT22;9294;51.106;7.028;2024-03-23T08:18:24;20.30;91.60
18337;DHT22;9294;51.106;7.028;2024-03-23T08:20:55;20.30;91.50
18337;DHT22;9294;51.106;7.028;2024-03-23T08:23:24;20.30;91.50
18337;DHT22;9294;51.106;7.028;2024-03-23T08:25:50;20.30;91.50
18337;DHT22;9294;51.106;7.028;2024-03-23T08:28:16;20.30;91.90
18337;DHT22;9294;51.106;7.028;2024-03-23T08:30:43;20.30;91.60
18337;DHT22;9294;51.106;7.028;2024-03-23T08:33:09;20.30;91.60
18337;DHT22;9294;51.106;7.028;2024-03-23T08:35:35;20.30;91.60
18337;DHT22;9294;51.106;7.028;2024-03-23T08:38:02;20.30;91.50
18337;DHT22;9294;51.106;7.028;2024-03-23T08:40:29;20.30;91.80
18337;DHT22;9294;51.106;7.028;2024-03-23T08:42:56;20.30;91.50
18337;DHT22;9294;51.106;7.028;2024-03-23T08:45:21;20.30;91.50
18337;DHT22;9294;51.106;7.028;2024-03-23T08:47:48;20.30;91.40
18337;DHT22;9294;51.106;7.028;2024-03-23T08:50:14;20.30;91.40
18337;DHT22;9294;51.106;7.028;2024-03-23T08:52:41;20.30;91.40
18337;DHT22;9294;51.106;7.028;2024-03-23T08:55:07;20.30;91.40
18337;DHT22;9294;51.106;7.028;2024-03-23T08:57:36;20.40;91.40
18337;DHT22;9294;51.106;7.028;2024-03-23T09:00:02;20.30;91.30
18337;DHT22;9294;51.106;7.028;2024-03-23T09:02:31;20.30;91.30
18337;DHT22;9294;51.106;7.028;2024-03-23T09:04:57;20.30;91.30
18337;DHT22;9294;51.106;7.028;2024-03-23T09:07:29;20.30;91.20
18337;DHT22;9294;51.106;7.028;2024-03-23T09:09:55;20.30;91.20
18337;DHT22;9294;51.106;7.028;2024-03-23T09:12:22;20.30;91.30
18337;DHT22;9294;51.106;7.028;2024-03-23T09:14:49;20.30;91.20
18337;DHT22;9294;51.106;7.028;2024-03-23T09:17:16;20.30;91.50
18337;DHT22;9294;51.106;7.028;2024-03-23T09:19:41;20.30;91.20
18337;DHT22;9294;51.106;7.028;2024-03-23T09:22:08;20.30;91.20
18337;DHT22;9294;51.106;7.028;2024-03-23T09:24:34;20.30;91.20
18337;DHT22;9294;51.106;7.028;2024-03-23T09:27:01;20.30;91.40
18337;DHT22;9294;51.106;7.028;2024-03-23T09:29:27;20.30;91.10
18337;DHT22;9294;51.106;7.028;2024-03-23T09:31:55;20.30;91.10
18337;DHT22;9294;51.106;7.028;2024-03-23T09:34:21;20.30;91.10
18337;DHT22;9294;51.106;7.028;2024-03-23T09:36:51;20.30;91.10
18337;DHT22;9294;51.106;7.028;2024-03-23T09:39:17;20.40;91.10
18337;DHT22;9294;51.106;7.028;2024-03-23T09:41:43;20.40;91.20
18337;DHT22;9294;51.106;7.028;2024-03-23T09:44:09;20.40;91.10
18337;DHT22;9294;51.106;7.028;2024-03-23T09:46:36;20.40;91.10
18337;DHT22;9294;51.106;7.028;2024-03-23T09:49:05;20.40;91.10
18337;DHT22;9294;51.106;7.028;2024-03-23T09:51:35;20.30;91.00
18337;DHT22;9294;51.106;7.028;2024-03-23T09:54:01;20.40;91.10
18337;DHT22;9294;51.106;7.028;2024-03-23T09:56:28;20.40;91.10
18337;DHT22;9294;51.106;7.028;2024-03-23T09:59:00;20.30;91.00
18337;DHT22;9294;51.106;7.028;2024-03-23T10:01:27;20.30;91.00
18337;DHT22;9294;51.106;7.028;2024-03-23T10:03:54;20.30;91.10
18337;DHT22;9294;51.106;7.028;2024-03-23T10:06:22;20.30;91.10
18337;DHT22;9294;51.106;7.028;2024-03-23T10:08:50;20.30;91.10
18337;DHT22;9294;51.106;7.028;2024-03-23T10:11:17;20.30;91.10
18337;DHT22;9294;51.106;7.028;2024-03-23T10:13:43;20.30;91.10
18337;DHT22;9294;51.106;7.028;2024-03-23T10:16:12;20.30;91.10
18337;DHT22;9294;51.106;7.028;2024-03-23T10:18:38;20.30;91.00
18337;DHT22;9294;51.106;7.028;2024-03-23T10:21:09;20.30;91.00
18337;DHT22;9294;51.106;7.028;2024-03-23T10:23:38;20.30;91.00
18337;DHT22;9294;51.106;7.028;2024-03-23T10:26:17;20.30;91.00
18337;DHT22;9294;51.106;7.028;2024-03-23T10:28:56;20.30;90.80
18337;DHT22;9294;51.106;7.028;2024-03-23T10:31:26;20.40;90.90
18337;DHT22;9294;51.106;7.028;2024-03-23T10:33:52;20.30;90.90
18337;DHT22;9294;51.106;7.028;2024-03-23T10:36:20;20.30;90.90
18337;DHT22;9294;51.106;7.028;2024-03-23T10:38:47;20.30;90.80
18337;DHT22;9294;51.106;7.028;2024-03-23T10:41:15;20.40;90.90
18337;DHT22;9294;51.106;7.028;2024-03-23T10:43:43;20.30;90.80
18337;DHT22;9294;51.106;7.028;2024-03-23T10:46:11;20.30;90.80
18337;DHT22;9294;51.106;7.028;2024-03-23T10:48:36;20.30;90.80
18337;DHT22;9294;51.106;7.028;2024-03-23T10:51:04;20.30;90.80
18337;DHT22;9294;51.106;7.028;2024-03-23T10:53:32;20.40;90.80
18337;DHT22;9294;51.106;7.028;2024-03-23T10:56:01;20.30;90.80
18337;DHT22;9294;51.106;7.028;2024-03-23T10:58:30;20.40;90.80
18337;DHT22;9294;51.106;7.028;2024-03-23T11:00:57;20.40;90.80
18337;DHT22;9294;51.106;7.028;2024-03-23T11:03:31;20.30;90.80
18337;DHT22;9294;51.106;7.028;2024-03-23T11:05:58;20.40;90.80
18337;DHT22;9294;51.106;7.028;2024-03-23T11:08:31;20.30;90.80
18337;DHT22;9294;51.106;7.028;2024-03-23T11:11:17;20.40;90.70
18337;DHT22;9294;51.106;7.028;2024-03-23T11:13:43;20.40;90.70
18337;DHT22;9294;51.106;7.028;2024-03-23T11:16:17;20.30;90.80
18337;DHT22;9294;51.106;7.028;2024-03-23T11:18:46;20.30;90.80
18337;DHT22;9294;51.106;7.028;2024-03-23T11:21:52;20.30;90.80
18337;DHT22;9294;51.106;7.028;2024-03-23T11:24:18;20.30;90.70
18337;DHT22;9294;51.106;7.028;2024-03-23T11:26:47;20.30;90.80
18337;DHT22;9294;51.106;7.028;2024-03-23T11:29:14;20.30;90.70
18337;DHT22;9294;51.106;7.028;2024-03-23T11:31:46;20.30;90.70
18337;DHT22;9294;51.106;7.028;2024-03-23T11:34:12;20.30;90.60
18337;DHT22;9294;51.106;7.028;2024-03-23T11:36:38;20.30;90.70
18337;DHT22;9294;51.106;7.028;2024-03-23T11:39:12;20.30;90.60
18337;DHT22;9294;51.106;7.028;2024-03-23T11:41:49;20.30;90.50
18337;DHT22;9294;51.106;7.028;2024-03-23T11:44:16;20.30;90.50
18337;DHT22;9294;51.106;7.028;2024-03-23T11:46:43;20.40;90.60
18337;DHT22;9294;51.106;7.028;2024-03-23T11:49:20;20.30;90.50
18337;DHT22;9294;51.106;7.028;2024-03-23T11:51:47;20.30;90.40
18337;DHT22;9294;51.106;7.028;2024-03-23T11:54:13;20.30;90.40
18337;DHT22;9294;51.106;7.028;2024-03-23T11:56:40;20.30;90.40
18337;DHT22;9294;51.106;7.028;2024-03-23T11:59:07;20.40;90.40
18337;DHT22;9294;51.106;7.028;2024-03-23T12:01:34;20.30;90.30
18337;DHT22;9294;51.106;7.028;2024-03-23T12:04:00;20.40;90.40
18337;DHT22;9294;51.106;7.028;2024-03-23T12:06:26;20.30;90.30
18337;DHT22;9294;51.106;7.028;2024-03-23T12:08:52;20.30;90.30
18337;DHT22;9294;51.106;7.028;2024-03-23T12:11:19;20.40;90.30
18337;DHT22;9294;51.106;7.028;2024-03-23T12:13:45;20.30;90.30
18337;DHT22;9294;51.106;7.028;2024-03-23T12:16:17;20.30;90.20
18337;DHT22;9294;51.106;7.028;2024-03-23T12:18:45;20.40;90.20
18337;DHT22;9294;51.106;7.028;2024-03-23T12:21:11;20.30;90.20
18337;DHT22;9294;51.106;7.028;2024-03-23T12:23:39;20.40;90.20
18337;DHT22;9294;51.106;7.028;2024-03-23T12:26:06;20.40;90.20
18337;DHT22;9294;51.106;7.028;2024-03-23T12:28:32;20.40;90.20
18337;DHT22;9294;51.106;7.028;2024-03-23T12:30:59;20.40;90.20
18337;DHT22;9294;51.106;7.028;2024-03-23T12:33:26;20.40;90.20
18337;DHT22;9294;51.106;7.028;2024-03-23T12:35:53;20.30;90.10
18337;DHT22;9294;51.106;7.028;2024-03-23T12:38:19;20.30;90.20
18337;DHT22;9294;51.106;7.028;2024-03-23T12:40:46;20.30;90.20
18337;DHT22;9294;51.106;7.028;2024-03-23T12:43:13;20.30;90.20
18337;DHT22;9294;51.106;7.028;2024-03-23T12:45:39;20.30;90.20
18337;DHT22;9294;51.106;7.028;2024-03-23T12:48:06;20.30;90.20
18337;DHT22;9294;51.106;7.028;2024-03-23T12:50:34;20.30;90.20
18337;DHT22;9294;51.106;7.028;2024-03-23T12:53:00;20.30;90.20
18337;DHT22;9294;51.106;7.028;2024-03-23T12:55:26;20.30;90.20
18337;DHT22;9294;51.106;7.028;2024-03-23T12:57:52;20.30;90.20
18337;DHT22;9294;51.106;7.028;2024-03-23T13:00:19;20.30;90.30
18337;DHT22;9294;51.106;7.028;2024-03-23T13:02:45;20.30;90.30
18337;DHT22;9294;51.106;7.028;2024-03-23T13:05:12;20.30;90.30
18337;DHT22;9294;51.106;7.028;2024-03-23T13:07:39;20.30;90.30
18337;DHT22;9294;51.106;7.028;2024-03-23T13:10:06;20.30;90.30
18337;DHT22;9294;51.106;7.028;2024-03-23T13:12:33;20.30;90.30
18337;DHT22;9294;51.106;7.028;2024-03-23T13:14:59;20.30;90.30
18337;DHT22;9294;51.106;7.028;2024-03-23T13:17:25;20.30;90.30
18337;DHT22;9294;51.106;7.028;2024-03-23T13:19:53;20.30;90.30
18337;DHT22;9294;51.106;7.028;2024-03-23T13:22:19;20.30;90.20
18337;DHT22;9294;51.106;7.028;2024-03-23T13:24:47;20.30;90.30
18337;DHT22;9294;51.106;7.028;2024-03-23T13:27:13;20.30;90.30
18337;DHT22;9294;51.106;7.028;2024-03-23T13:29:41;20.30;90.20
18337;DHT22;9294;51.106;7.028;2024-03-23T13:32:07;20.30;90.20
18337;DHT22;9294;51.106;7.028;2024-03-23T13:34:34;20.30;90.20
18337;DHT22;9294;51.106;7.028;2024-03-23T13:37:00;20.30;90.20
18337;DHT22;9294;51.106;7.028;2024-03-23T13:39:27;20.30;90.20
18337;DHT22;9294;51.106;7.028;2024-03-23T13:41:54;20.30;90.20
18337;DHT22;9294;51.106;7.028;2024-03-23T13:44:21;20.30;90.10
18337;DHT22;9294;51.106;7.028;2024-03-23T13:46:47;20.30;90.10
18337;DHT22;9294;51.106;7.028;2024-03-23T13:49:24;20.30;90.10
18337;DHT22;9294;51.106;7.028;2024-03-23T13:51:50;20.30;90.00
18337;DHT22;9294;51.106;7.028;2024-03-23T13:54:17;20.30;90.10
18337;DHT22;9294;51.106;7.028;2024-03-23T13:56:42;20.30;90.00
18337;DHT22;9294;51.106;7.028;2024-03-23T13:59:11;20.30;90.00
18337;DHT22;9294;51.106;7.028;2024-03-23T14:01:37;20.30;90.00
18337;DHT22;9294;51.106;7.028;2024-03-23T14:04:04;20.30;90.00
18337;DHT22;9294;51.106;7.028;2024-03-23T14:06:29;20.30;90.00
18337;DHT22;9294;51.106;7.028;2024-03-23T14:08:56;20.30;90.00
18337;DHT22;9294;51.106;7.028;2024-03-23T14:11:22;20.30;90.00
18337;DHT22;9294;51.106;7.028;2024-03-23T14:13:48;20.30;90.00
18337;DHT22;9294;51.106;7.028;2024-03-23T14:16:15;20.30;90.00
18337;DHT22;9294;51.106;7.028;2024-03-23T14:18:43;20.30;90.00
18337;DHT22;9294;51.106;7.028;2024-03-23T14:21:08;20.30;90.00
18337;DHT22;9294;51.106;7.028;2024-03-23T14:23:36;20.30;90.00
18337;DHT22;9294;51.106;7.028;2024-03-23T14:26:02;20.30;90.00
18337;DHT22;9294;51.106;7.028;2024-03-23T14:28:28;20.30;90.00
18337;DHT22;9294;51.106;7.028;2024-03-23T14:30:56;20.30;90.00
18337;DHT22;9294;51.106;7.028;2024-03-23T14:33:24;20.30;90.00
18337;DHT22;9294;51.106;7.028;2024-03-23T14:35:53;20.30;90.10
18337;DHT22;9294;51.106;7.028;2024-03-23T14:38:20;20.30;90.00
18337;DHT22;9294;51.106;7.028;2024-03-23T14:40:45;20.30;90.00
18337;DHT22;9294;51.106;7.028;2024-03-23T14:43:12;20.30;90.00
18337;DHT22;9294;51.106;7.028;2024-03-23T14:48:31;20.30;90.00
18337;DHT22;9294;51.106;7.028;2024-03-23T14:50:58;20.30;90.00
18337;DHT22;9294;51.106;7.028;2024-03-23T14:53:25;20.30;90.00
18337;DHT22;9294;51.106;7.028;2024-03-23T14:55:51;20.30;90.00
18337;DHT22;9294;51.106;7.028;2024-03-23T14:58:20;20.30;90.00
18337;DHT22;9294;51.106;7.028;2024-03-23T15:00:46;20.30;90.00
18337;DHT22;9294;51.106;7.028;2024-03-23T15:03:13;20.30;90.00
18337;DHT22;9294;51.106;7.028;2024-03-23T15:05:40;20.30;90.00
18337;DHT22;9294;51.106;7.028;2024-03-23T15:08:07;20.30;90.00
18337;DHT22;9294;51.106;7.028;2024-03-23T15:10:33;20.30;90.00
18337;DHT22;9294;51.106;7.028;2024-03-23T15:12:59;20.30;90.00
18337;DHT22;9294;51.106;7.028;2024-03-23T15:15:25;20.20;90.00
18337;DHT22;9294;51.106;7.028;2024-03-23T15:17:52;20.30;89.90
18337;DHT22;9294;51.106;7.028;2024-03-23T15:20:17;20.30;89.90
18337;DHT22;9294;51.106;7.028;2024-03-23T15:22:45;20.30;89.80
18337;DHT22;9294;51.106;7.028;2024-03-23T15:25:11;20.30;89.90
18337;DHT22;9294;51.106;7.028;2024-03-23T15:27:38;20.30;89.80
18337;DHT22;9294;51.106;7.028;2024-03-23T15:30:05;20.30;89.80
18337;DHT22;9294;51.106;7.028;2024-03-23T15:32:32;20.30;89.80
18337;DHT22;9294;51.106;7.028;2024-03-23T15:34:58;20.30;89.80
18337;DHT22;9294;51.106;7.028;2024-03-23T15:37:24;20.30;89.80
18337;DHT22;9294;51.106;7.028;2024-03-23T15:39:51;20.30;89.80
18337;DHT22;9294;51.106;7.028;2024-03-23T15:42:18;20.30;89.70
18337;DHT22;9294;51.106;7.028;2024-03-23T15:44:44;20.40;89.80
18337;DHT22;9294;51.106;7.028;2024-03-23T15:47:11;20.30;89.70
18337;DHT22;9294;51.106;7.028;2024-03-23T15:49:37;20.30;89.60
18337;DHT22;9294;51.106;7.028;2024-03-23T15:52:05;20.30;89.50
18337;DHT22;9294;51.106;7.028;2024-03-23T15:54:31;20.30;89.60
18337;DHT22;9294;51.106;7.028;2024-03-23T15:56:59;20.30;89.50
18337;DHT22;9294;51.106;7.028;2024-03-23T15:59:24;20.30;89.50
18337;DHT22;9294;51.106;7.028;2024-03-23T16:01:51;20.30;89.40
18337;DHT22;9294;51.106;7.028;2024-03-23T16:04:17;20.30;89.50
18337;DHT22;9294;51.106;7.028;2024-03-23T16:06:43;20.30;89.50
18337;DHT22;9294;51.106;7.028;2024-03-23T16:09:09;20.30;89.50
18337;DHT22;9294;51.106;7.028;2024-03-23T16:11:36;20.30;89.50
18337;DHT22;9294;51.106;7.028;2024-03-23T16:14:03;20.30;89.50
18337;DHT22;9294;51.106;7.028;2024-03-23T16:16:30;20.30;89.60
18337;DHT22;9294;51.106;7.028;2024-03-23T16:18:55;20.30;89.70
18337;DHT22;9294;51.106;7.028;2024-03-23T16:21:22;20.30;89.70
18337;DHT22;9294;51.106;7.028;2024-03-23T16:23:48;20.30;89.70
18337;DHT22;9294;51.106;7.028;2024-03-23T16:26:14;20.30;89.70
18337;DHT22;9294;51.106;7.028;2024-03-23T16:28:42;20.30;89.80
18337;DHT22;9294;51.106;7.028;2024-03-23T16:31:10;20.30;89.80
18337;DHT22;9294;51.106;7.028;2024-03-23T16:33:36;20.30;89.80
18337;DHT22;9294;51.106;7.028;2024-03-23T16:36:04;20.20;89.60
18337;DHT22;9294;51.106;7.028;2024-03-23T16:38:31;20.30;89.70